Portada
METAR-TAF:

METAR-TAF

Aeroports :

Hyakuri, Japó

latitud: 36-11N, longitud: 140-25E, altitud: 32 m

Observació

L'informe es va fer fa 27 minuts, a les 01:00 UTC
Vent 11 kt del Sud/Sud-Oest
Temperatura 31°C
Humitat 66%
Pressió 1008 hPa
Visibilitat 10 km o més
Núvols disperses a una alçada de 2000 ft
Cel ennuvolat a una alçada de 25000 ft

METAR: RJAH 070100Z 21011KT 9999 SCT020 BKN250 31/24 Q1008

Hora: 10:27 (01:27 UTC)

Pronòstic

L'informe es va fer fa 2 hores i 19 minuts, a les 23:08 UTC
Pronòstic vàlid del 07 a les 00 UTC al 08 a les 06 UTC
Vent 12 kt del Sud/Sud-Oest
Visibilitat 10 km o més
Escasses núvols a una alçada de 3000 ft
Evolucionant progressivament
l' 07 a les 12 UTC al 07 a les 15 UTC
Vent 10 kt del Est/Nord-Est

TAF: RJAH 062308Z 0700/0806 20012KT 9999 FEW030 BECMG 0712/0715 06010KT

Observacions i pronòstics meteorològics de més de 4000 aeroports (METAR i TAF).

Les estacions disponibles són els punts grocs i vermells al mapa.

Posi el ratolí al punt desitjat per veure el nom de l'estació.

Feu clic per veure les observacions i els pronòstics meteorològics.

Per canviar el mapa: feu clic els botons verds amb una creu de color negre per apropar; al botó verd amb un guió per allunyar la imatge; o en les fletxes verdes per a mapes adjacents.


METAR-TAF: